createdAt,value
2023-01-29T00:02:08.779Z,18.08
2023-01-29T00:07:11.891Z,22.10
2023-01-29T00:12:15.027Z,13.98
2023-01-29T00:17:18.167Z,15.20
2023-01-29T00:22:21.245Z,13.45
2023-01-29T00:27:24.353Z,8.70
2023-01-29T00:32:27.402Z,7.60
2023-01-29T00:37:30.614Z,7.90
2023-01-29T00:42:52.166Z,6.10
2023-01-29T00:47:55.172Z,4.65
2023-01-29T00:58:34.536Z,8.45
2023-01-29T01:03:42.460Z,10.65
2023-01-29T01:09:03.791Z,9.43
2023-01-29T01:14:08.162Z,7.78
2023-01-29T01:19:11.612Z,6.93
2023-01-29T01:24:15.188Z,9.82
2023-01-29T01:29:19.633Z,6.47
2023-01-29T01:34:28.799Z,8.48
2023-01-29T01:39:31.909Z,8.55
2023-01-29T01:45:05.295Z,10.27
2023-01-29T01:50:19.379Z,9.13
2023-01-29T01:55:28.365Z,7.45
2023-01-29T02:00:31.381Z,9.65
2023-01-29T02:05:56.008Z,6.50
2023-01-29T02:10:59.262Z,5.55
2023-01-29T02:16:02.560Z,7.82
2023-01-29T02:21:43.088Z,11.43
2023-01-29T02:27:08.488Z,9.05
2023-01-29T02:32:30.000Z,8.98
2023-01-29T02:37:40.290Z,13.55
2023-01-29T02:43:22.930Z,9.57
2023-01-29T02:48:29.881Z,6.38
2023-01-29T02:53:50.824Z,16.35
2023-01-29T02:59:07.332Z,10.60
2023-01-29T03:04:17.417Z,10.07
2023-01-29T03:09:30.451Z,6.55
2023-01-29T03:14:58.387Z,9.85
2023-01-29T03:20:18.258Z,5.07
2023-01-29T03:25:47.792Z,8.73
2023-01-29T03:31:14.970Z,8.02
2023-01-29T03:37:08.043Z,8.75
2023-01-29T03:42:23.823Z,9.85
2023-01-29T03:47:45.599Z,14.55
2023-01-29T03:53:22.339Z,10.38
2023-01-29T03:58:47.359Z,15.48
2023-01-29T04:04:02.164Z,11.98
2023-01-29T04:09:27.500Z,9.57
2023-01-29T04:14:33.372Z,11.45
2023-01-29T04:19:38.319Z,7.93
2023-01-29T04:24:43.062Z,7.03
2023-01-29T04:29:46.645Z,6.75
2023-01-29T04:35:30.063Z,14.30
2023-01-29T04:40:44.494Z,7.30
2023-01-29T04:46:24.870Z,15.43
2023-01-29T04:51:48.824Z,7.15
2023-01-29T04:57:03.149Z,11.85
2023-01-29T05:02:10.374Z,9.48
2023-01-29T05:07:15.742Z,7.53
2023-01-29T05:12:19.409Z,11.13
2023-01-29T05:17:22.579Z,11.45
2023-01-29T05:22:27.017Z,11.40
2023-01-29T05:27:53.641Z,8.32
2023-01-29T05:32:56.657Z,5.72
2023-01-29T05:37:59.697Z,8.98
2023-01-29T05:43:02.772Z,9.18
2023-01-29T05:48:06.042Z,8.57
2023-01-29T05:53:09.817Z,11.05
2023-01-29T05:58:13.267Z,8.02
2023-01-29T06:03:16.439Z,7.45
2023-01-29T06:08:19.548Z,12.63
2023-01-29T06:13:23.702Z,10.57
2023-01-29T06:18:27.026Z,11.50
2023-01-29T06:23:30.433Z,4.88
2023-01-29T06:28:33.671Z,17.77
2023-01-29T06:33:36.658Z,8.57
2023-01-29T06:38:39.625Z,11.35
2023-01-29T06:43:45.008Z,10.43
2023-01-29T06:48:48.137Z,12.52
2023-01-29T06:53:51.244Z,12.15
2023-01-29T06:58:55.493Z,11.50
2023-01-29T07:03:58.505Z,13.02
2023-01-29T07:09:01.707Z,9.40
2023-01-29T07:14:05.043Z,8.48
2023-01-29T07:19:08.185Z,10.48
2023-01-29T07:24:11.416Z,8.07
2023-01-29T07:29:14.461Z,15.55
2023-01-29T07:34:17.531Z,7.70
2023-01-29T07:39:20.580Z,7.00
2023-01-29T07:44:23.710Z,11.38
2023-01-29T07:49:26.853Z,9.45
2023-01-29T07:54:29.894Z,9.60
2023-01-29T07:59:33.014Z,6.43
2023-01-29T08:04:36.102Z,3.67
2023-01-29T08:09:39.209Z,8.90
2023-01-29T08:14:42.297Z,6.20
2023-01-29T08:25:08.305Z,10.80
2023-01-29T08:30:12.602Z,14.18
2023-01-29T08:35:15.660Z,22.75
2023-01-29T08:40:19.040Z,15.15
2023-01-29T08:45:22.283Z,14.27
2023-01-29T08:50:25.500Z,9.00
2023-01-29T08:55:29.100Z,14.55
2023-01-29T09:00:33.469Z,11.55
2023-01-29T09:05:40.909Z,6.68
2023-01-29T09:10:43.944Z,7.88
2023-01-29T09:15:46.971Z,15.50
2023-01-29T09:20:50.083Z,17.92
2023-01-29T09:25:53.116Z,15.77
2023-01-29T09:30:56.215Z,5.28
2023-01-29T09:35:59.340Z,13.80
2023-01-29T09:41:31.622Z,9.80
2023-01-29T09:46:41.525Z,9.50
2023-01-29T09:51:50.422Z,11.45
2023-01-29T09:56:57.404Z,6.05
2023-01-29T10:02:11.852Z,17.27
2023-01-29T10:07:35.355Z,10.15
2023-01-29T10:12:52.929Z,14.15
2023-01-29T10:18:10.830Z,5.97
2023-01-29T10:23:47.207Z,12.77
2023-01-29T10:28:55.854Z,10.98
2023-01-29T10:34:13.223Z,15.43
2023-01-29T10:39:23.186Z,12.75
2023-01-29T10:44:53.474Z,14.57
2023-01-29T10:56:23.680Z,11.20
2023-01-29T11:01:28.910Z,9.57
2023-01-29T11:06:34.536Z,10.43
2023-01-29T11:11:43.810Z,9.85
2023-01-29T11:16:49.921Z,12.95
2023-01-29T11:22:01.775Z,14.07
2023-01-29T11:27:15.755Z,7.65
2023-01-29T11:32:26.196Z,15.52
2023-01-29T11:37:40.231Z,11.75
2023-01-29T11:53:07.323Z,7.50
2023-01-29T11:58:27.345Z,9.82
2023-01-29T12:03:41.942Z,16.02
2023-01-29T12:08:45.195Z,10.35
2023-01-29T12:13:56.019Z,9.30
2023-01-29T12:25:20.549Z,21.13
2023-01-29T12:30:45.056Z,16.98
2023-01-29T12:36:00.153Z,14.30
2023-01-29T12:41:21.991Z,20.33
2023-01-29T12:46:25.038Z,12.60
2023-01-29T12:51:38.118Z,13.98
2023-01-29T13:01:57.083Z,7.97
2023-01-29T13:07:15.017Z,18.13
2023-01-29T13:12:21.158Z,7.47
2023-01-29T13:17:45.805Z,11.20
2023-01-29T13:22:50.830Z,10.98
2023-01-29T13:27:54.367Z,13.82
2023-01-29T13:33:10.231Z,11.57
2023-01-29T13:38:27.475Z,12.00
2023-01-29T13:43:36.992Z,14.88
2023-01-29T13:48:47.098Z,11.57
2023-01-29T13:54:04.680Z,10.55
2023-01-29T13:59:25.430Z,17.50
2023-01-29T14:04:31.563Z,11.48
2023-01-29T14:09:34.589Z,14.70
2023-01-29T14:14:49.589Z,11.52
2023-01-29T14:19:57.269Z,12.80
2023-01-29T14:25:06.335Z,14.27
2023-01-29T14:30:17.298Z,9.13
2023-01-29T14:35:30.841Z,8.70
2023-01-29T14:40:37.197Z,10.77
2023-01-29T14:45:44.948Z,10.63
2023-01-29T14:56:17.875Z,17.30
2023-01-29T15:07:12.861Z,14.05
2023-01-29T15:12:22.120Z,13.00
2023-01-29T15:17:46.052Z,11.80
2023-01-29T15:22:49.120Z,8.35
2023-01-29T15:27:53.328Z,12.57
2023-01-29T15:32:57.152Z,12.02
2023-01-29T15:38:19.727Z,12.63
2023-01-29T15:43:25.616Z,13.73
2023-01-29T15:48:36.404Z,37.40
2023-01-29T15:53:55.067Z,25.38
2023-01-29T15:59:01.358Z,27.42
2023-01-29T16:04:05.586Z,31.70
2023-01-29T16:09:10.700Z,28.38
2023-01-29T16:14:16.706Z,23.88
2023-01-29T16:19:28.986Z,16.65
2023-01-29T16:24:36.785Z,26.15
2023-01-29T16:29:40.139Z,30.80
2023-01-29T16:34:45.673Z,24.05
2023-01-29T16:39:50.878Z,26.85
2023-01-29T16:44:58.153Z,22.40
2023-01-29T16:55:13.769Z,27.05
2023-01-29T17:00:26.304Z,28.15
2023-01-29T17:05:31.940Z,26.83
2023-01-29T17:10:36.374Z,24.40
2023-01-29T17:15:44.804Z,19.67
2023-01-29T17:20:48.655Z,22.40
2023-01-29T17:25:52.193Z,24.38
2023-01-29T17:31:05.755Z,27.00
2023-01-29T17:36:13.624Z,24.08
2023-01-29T17:41:25.403Z,24.42
2023-01-29T17:46:28.564Z,21.80
2023-01-29T17:51:31.646Z,24.38
2023-01-29T17:56:34.731Z,24.35
2023-01-29T18:01:37.773Z,25.27
2023-01-29T18:06:42.577Z,24.80
2023-01-29T18:11:45.631Z,23.70
2023-01-29T18:16:48.750Z,26.95
2023-01-29T18:21:52.787Z,31.13
2023-01-29T18:26:55.937Z,19.27
2023-01-29T18:31:59.061Z,28.20
2023-01-29T18:37:02.110Z,24.45
2023-01-29T18:42:05.259Z,17.58
2023-01-29T18:47:08.337Z,32.03
2023-01-29T18:52:11.491Z,23.90
2023-01-29T18:57:16.906Z,26.33
2023-01-29T19:08:06.659Z,34.50
2023-01-29T19:13:09.832Z,26.88
2023-01-29T19:18:14.756Z,29.15
2023-01-29T19:23:17.968Z,22.98
2023-01-29T19:28:21.024Z,22.45
2023-01-29T19:33:24.738Z,25.08
2023-01-29T19:38:28.250Z,31.98
2023-01-29T19:43:32.396Z,23.30
2023-01-29T19:48:35.622Z,19.25
2023-01-29T19:53:44.202Z,21.63
2023-01-29T19:58:47.842Z,19.33
2023-01-29T20:03:52.580Z,14.77
2023-01-29T20:08:55.688Z,17.23
2023-01-29T20:13:59.322Z,17.90
2023-01-29T20:19:14.309Z,19.00
2023-01-29T20:24:18.135Z,15.40
2023-01-29T20:29:21.265Z,16.42
2023-01-29T20:39:43.623Z,17.88
2023-01-29T20:44:46.633Z,14.32
2023-01-29T20:49:50.015Z,22.17
2023-01-29T20:54:54.177Z,24.15
2023-01-29T20:59:57.401Z,22.40
2023-01-29T21:05:00.512Z,15.55
2023-01-29T21:10:04.091Z,24.15
2023-01-29T21:15:07.764Z,18.40
2023-01-29T21:20:11.349Z,22.33
2023-01-29T21:25:14.936Z,13.70
2023-01-29T21:30:21.042Z,15.02
2023-01-29T21:35:24.239Z,14.93
2023-01-29T21:40:27.363Z,27.60
2023-01-29T21:45:30.457Z,23.95
2023-01-29T21:50:33.580Z,23.63
2023-01-29T21:55:36.601Z,18.38
2023-01-29T22:00:39.957Z,20.73
2023-01-29T22:05:43.216Z,21.58
2023-01-29T22:10:46.464Z,21.40
2023-01-29T22:15:49.591Z,18.77
2023-01-29T22:20:57.070Z,18.77
2023-01-29T22:26:04.723Z,17.15
2023-01-29T22:31:07.808Z,18.05
2023-01-29T22:36:13.029Z,19.50
2023-01-29T22:41:16.109Z,18.15
2023-01-29T22:46:19.057Z,21.80
2023-01-29T22:51:22.122Z,19.10
2023-01-29T22:56:31.383Z,16.17
2023-01-29T23:01:34.467Z,22.63
2023-01-29T23:06:37.639Z,21.83
2023-01-29T23:11:40.670Z,28.75
2023-01-29T23:16:43.830Z,24.50
2023-01-29T23:21:47.062Z,23.60
2023-01-29T23:32:26.317Z,21.13
2023-01-29T23:37:29.338Z,28.95
2023-01-29T23:42:32.347Z,27.65
2023-01-29T23:47:35.388Z,24.20
2023-01-29T23:52:39.208Z,20.13
2023-01-29T23:57:42.292Z,21.67
